createdAt,value
2018-03-04T00:00:23.719Z,18.50
2018-03-04T00:02:52.747Z,18.50
2018-03-04T00:05:21.071Z,18.50
2018-03-04T00:07:49.645Z,18.50
2018-03-04T00:10:18.147Z,18.50
2018-03-04T00:12:47.483Z,18.50
2018-03-04T00:15:15.719Z,18.50
2018-03-04T00:17:44.254Z,18.50
2018-03-04T00:20:12.679Z,18.40
2018-03-04T00:22:42.838Z,18.40
2018-03-04T00:25:11.087Z,18.40
2018-03-04T00:27:40.297Z,18.40
2018-03-04T00:30:09.319Z,18.40
2018-03-04T00:32:37.840Z,18.40
2018-03-04T00:35:05.909Z,18.40
2018-03-04T00:37:34.155Z,18.40
2018-03-04T00:40:03.381Z,18.40
2018-03-04T00:42:31.700Z,18.30
2018-03-04T00:44:59.799Z,18.30
2018-03-04T00:47:28.345Z,18.30
2018-03-04T00:49:57.525Z,18.30
2018-03-04T00:52:25.470Z,18.30
2018-03-04T00:54:55.374Z,18.30
2018-03-04T00:57:23.655Z,18.30
2018-03-04T00:59:52.764Z,18.30
2018-03-04T01:02:20.887Z,18.20
2018-03-04T01:04:49.830Z,18.30
2018-03-04T01:07:20.326Z,18.30
2018-03-04T01:09:48.922Z,18.20
2018-03-04T01:12:17.915Z,18.20
2018-03-04T01:14:46.462Z,18.20
2018-03-04T01:17:14.675Z,18.30
2018-03-04T01:19:43.512Z,18.20
2018-03-04T01:22:11.596Z,18.20
2018-03-04T01:24:40.117Z,18.20
2018-03-04T01:27:09.289Z,18.30
2018-03-04T01:29:39.222Z,18.20
2018-03-04T01:32:07.999Z,18.30
2018-03-04T01:34:37.019Z,18.30
2018-03-04T01:37:05.809Z,18.20
2018-03-04T01:39:35.283Z,18.30
2018-03-04T01:42:04.284Z,18.30
2018-03-04T01:44:33.639Z,18.30
2018-03-04T01:47:02.192Z,18.20
2018-03-04T01:49:30.710Z,18.30
2018-03-04T01:51:58.701Z,18.20
2018-03-04T01:57:18.550Z,18.20
2018-03-04T01:59:46.266Z,18.20
2018-03-04T02:02:14.530Z,18.20
2018-03-04T02:04:42.604Z,18.20
2018-03-04T02:07:10.155Z,18.20
2018-03-04T02:09:37.831Z,18.20
2018-03-04T02:12:07.223Z,18.20
2018-03-04T02:14:36.356Z,18.30
2018-03-04T02:17:04.965Z,18.20
2018-03-04T02:19:34.309Z,18.40
2018-03-04T02:22:01.966Z,18.30
2018-03-04T02:24:30.010Z,18.30
2018-03-04T02:26:58.627Z,18.40
2018-03-04T02:29:26.842Z,18.40
2018-03-04T02:31:55.456Z,18.50
2018-03-04T02:34:23.011Z,18.50
2018-03-04T02:36:50.585Z,18.50
2018-03-04T02:39:18.138Z,18.60
2018-03-04T02:41:46.516Z,18.60
2018-03-04T02:44:16.532Z,18.60
2018-03-04T02:46:45.020Z,18.60
2018-03-04T02:49:12.579Z,18.60
2018-03-04T02:51:40.167Z,18.60
2018-03-04T02:54:08.535Z,18.70
2018-03-04T02:56:36.131Z,18.70
2018-03-04T02:59:03.699Z,18.70
2018-03-04T03:01:31.432Z,18.70
2018-03-04T03:03:59.047Z,18.70
2018-03-04T03:06:26.630Z,18.70
2018-03-04T03:08:54.187Z,18.70
2018-03-04T03:11:21.773Z,18.70
2018-03-04T03:13:50.094Z,18.60
2018-03-04T03:16:17.656Z,18.60
2018-03-04T03:18:45.211Z,18.60
2018-03-04T03:21:12.807Z,18.60
2018-03-04T03:23:40.368Z,18.60
2018-03-04T03:26:07.950Z,18.60
2018-03-04T03:28:36.377Z,18.60
2018-03-04T03:31:04.649Z,18.60
2018-03-04T03:33:32.214Z,18.60
2018-03-04T03:35:59.794Z,18.60
2018-03-04T03:38:27.355Z,18.60
2018-03-04T03:40:54.978Z,18.60
2018-03-04T03:43:22.634Z,18.50
2018-03-04T03:45:50.386Z,18.60
2018-03-04T03:48:17.946Z,18.60
2018-03-04T03:50:45.535Z,18.50
2018-03-04T03:53:13.091Z,18.50
2018-03-04T03:55:40.664Z,18.50
2018-03-04T03:58:08.226Z,18.50
2018-03-04T04:00:35.851Z,18.50
2018-03-04T04:03:03.419Z,18.50
2018-03-04T04:05:31.074Z,18.40
2018-03-04T04:07:58.632Z,18.50
2018-03-04T04:10:26.219Z,18.40
2018-03-04T04:12:53.783Z,18.40
2018-03-04T04:15:22.132Z,18.40
2018-03-04T04:17:49.683Z,18.40
2018-03-04T04:20:17.337Z,18.40
2018-03-04T04:22:45.016Z,18.40
2018-03-04T04:25:12.609Z,18.40
2018-03-04T04:27:40.956Z,18.40
2018-03-04T04:30:08.535Z,18.40
2018-03-04T04:32:37.026Z,18.40
2018-03-04T04:35:05.382Z,18.40
2018-03-04T04:37:32.954Z,18.40
2018-03-04T04:40:01.375Z,18.50
2018-03-04T04:42:28.967Z,18.50
2018-03-04T04:44:56.540Z,18.50
2018-03-04T04:47:24.896Z,18.50
2018-03-04T04:49:53.216Z,18.50
2018-03-04T04:52:20.910Z,18.50
2018-03-04T04:54:48.479Z,18.50
2018-03-04T04:57:16.078Z,18.50
2018-03-04T04:59:44.503Z,18.50
2018-03-04T05:02:12.079Z,18.40
2018-03-04T05:04:40.645Z,18.40
2018-03-04T05:07:08.203Z,18.40
2018-03-04T05:09:35.766Z,18.40
2018-03-04T05:12:03.318Z,18.40
2018-03-04T05:14:31.004Z,18.40
2018-03-04T05:16:58.571Z,18.40
2018-03-04T05:19:26.238Z,18.40
2018-03-04T05:21:53.899Z,18.40
2018-03-04T05:24:22.227Z,18.40
2018-03-04T05:26:49.777Z,18.40
2018-03-04T05:29:17.338Z,18.40
2018-03-04T05:31:44.891Z,18.40
2018-03-04T05:34:12.458Z,18.50
2018-03-04T05:36:40.122Z,18.50
2018-03-04T05:39:07.678Z,18.50
2018-03-04T05:41:35.234Z,18.50
2018-03-04T05:44:02.899Z,18.50
2018-03-04T05:46:30.458Z,18.50
2018-03-04T05:48:58.019Z,18.50
2018-03-04T05:51:25.579Z,18.50
2018-03-04T05:53:53.138Z,18.50
2018-03-04T05:56:20.687Z,18.50
2018-03-04T05:58:48.246Z,18.60
2018-03-04T06:01:15.803Z,18.60
2018-03-04T06:03:43.362Z,18.60
2018-03-04T06:06:10.918Z,18.60
2018-03-04T06:08:38.642Z,18.60
2018-03-04T06:11:06.235Z,18.60
2018-03-04T06:13:33.799Z,18.60
2018-03-04T06:16:01.387Z,18.60
2018-03-04T06:18:29.710Z,18.60
2018-03-04T06:20:57.291Z,18.50
2018-03-04T06:23:24.870Z,18.60
2018-03-04T06:25:52.508Z,18.60
2018-03-04T06:28:20.089Z,18.60
2018-03-04T06:30:47.720Z,18.60
2018-03-04T06:33:15.379Z,18.60
2018-03-04T06:35:42.934Z,18.50
2018-03-04T06:38:10.507Z,18.50
2018-03-04T06:40:38.135Z,18.50
2018-03-04T06:43:05.718Z,18.50
2018-03-04T06:45:33.396Z,18.50
2018-03-04T06:48:00.998Z,18.50
2018-03-04T06:50:28.573Z,18.50
2018-03-04T06:52:56.146Z,18.50
2018-03-04T06:55:23.702Z,18.50
2018-03-04T06:57:51.316Z,18.50
2018-03-04T07:00:19.659Z,18.50
2018-03-04T07:02:47.247Z,18.40
2018-03-04T07:05:14.818Z,18.50
2018-03-04T07:07:43.177Z,18.50
2018-03-04T07:10:10.803Z,18.40
2018-03-04T07:12:38.780Z,18.50
2018-03-04T07:15:06.377Z,18.50
2018-03-04T07:17:33.968Z,18.50
2018-03-04T07:20:01.523Z,18.50
2018-03-04T07:22:29.137Z,18.50
2018-03-04T07:24:56.793Z,18.50
2018-03-04T07:27:24.412Z,18.50
2018-03-04T07:29:51.987Z,18.50
2018-03-04T07:32:19.575Z,18.50
2018-03-04T07:34:47.230Z,18.50
2018-03-04T07:37:14.866Z,18.60
2018-03-04T07:39:42.432Z,18.60
2018-03-04T07:42:10.021Z,18.60
2018-03-04T07:44:38.506Z,18.60
2018-03-04T07:47:06.933Z,18.60
2018-03-04T07:49:34.490Z,18.60
2018-03-04T07:52:02.071Z,18.60
2018-03-04T07:54:29.634Z,18.60
2018-03-04T07:56:57.254Z,18.60
2018-03-04T07:59:24.925Z,18.60
2018-03-04T08:01:52.581Z,18.60
2018-03-04T08:04:20.147Z,18.60
2018-03-04T08:06:47.800Z,18.60
2018-03-04T08:09:15.350Z,18.60
2018-03-04T08:11:42.937Z,18.60
2018-03-04T08:14:10.495Z,18.60
2018-03-04T08:16:38.490Z,18.60
2018-03-04T08:19:06.833Z,18.60
2018-03-04T08:21:34.386Z,18.50
2018-03-04T08:24:01.967Z,18.60
2018-03-04T08:26:41.494Z,18.60
2018-03-04T08:29:09.079Z,18.60
2018-03-04T08:32:29.824Z,18.60
2018-03-04T08:34:57.747Z,18.60
2018-03-04T08:37:26.193Z,18.60
2018-03-04T08:39:53.830Z,18.60
2018-03-04T08:42:21.420Z,18.60
2018-03-04T08:44:48.994Z,18.60
2018-03-04T08:47:17.370Z,18.60
2018-03-04T08:49:44.933Z,18.60
2018-03-04T08:52:12.494Z,18.60
2018-03-04T08:54:40.822Z,18.60
2018-03-04T08:57:08.475Z,18.50
2018-03-04T08:59:36.035Z,18.60
2018-03-04T09:02:03.596Z,18.60
2018-03-04T09:04:31.172Z,18.60
2018-03-04T09:06:58.731Z,18.60
2018-03-04T09:09:26.320Z,18.60
2018-03-04T09:11:54.691Z,18.60
2018-03-04T09:14:23.138Z,18.60
2018-03-04T09:16:50.791Z,18.60
2018-03-04T09:19:18.375Z,18.60
2018-03-04T09:21:45.931Z,18.60
2018-03-04T09:24:13.515Z,18.60
2018-03-04T09:26:41.077Z,18.60
2018-03-04T09:29:09.429Z,18.60
2018-03-04T09:31:37.153Z,18.60
2018-03-04T09:34:04.828Z,18.60
2018-03-04T09:36:32.395Z,18.60
2018-03-04T09:39:00.036Z,18.60
2018-03-04T09:41:27.596Z,18.60
2018-03-04T09:43:55.255Z,18.60
2018-03-04T09:46:22.919Z,18.60
2018-03-04T09:48:50.511Z,18.60
2018-03-04T09:51:18.143Z,18.60
2018-03-04T09:53:45.727Z,18.60
2018-03-04T09:56:13.295Z,18.60
2018-03-04T09:58:41.730Z,18.60
2018-03-04T10:01:09.392Z,18.60
2018-03-04T10:03:36.975Z,18.60
2018-03-04T10:06:04.536Z,18.60
2018-03-04T10:08:32.139Z,18.60
2018-03-04T10:10:59.707Z,18.60
2018-03-04T10:13:27.287Z,18.60
2018-03-04T10:15:54.944Z,18.60
2018-03-04T10:18:22.523Z,18.60
2018-03-04T10:20:50.079Z,18.60
2018-03-04T10:23:18.806Z,18.60
2018-03-04T10:25:46.364Z,18.60
2018-03-04T10:28:13.944Z,18.60
2018-03-04T10:30:41.506Z,18.60
2018-03-04T10:33:09.088Z,18.60
2018-03-04T10:35:36.652Z,18.60
2018-03-04T10:38:05.109Z,18.60
2018-03-04T10:40:32.667Z,18.60
2018-03-04T10:43:00.418Z,18.60
2018-03-04T10:45:27.987Z,18.60
2018-03-04T10:47:55.563Z,18.60
2018-03-04T10:50:23.501Z,18.60
2018-03-04T10:52:51.074Z,18.60
2018-03-04T10:55:18.631Z,18.60
2018-03-04T10:57:46.308Z,18.60
2018-03-04T11:00:13.874Z,18.60
2018-03-04T11:02:41.621Z,18.60
2018-03-04T11:05:09.204Z,18.60
2018-03-04T11:07:36.768Z,18.60
2018-03-04T11:10:05.128Z,18.60
2018-03-04T11:12:33.451Z,18.60
2018-03-04T11:15:01.049Z,18.60
2018-03-04T11:17:28.613Z,18.60
2018-03-04T11:19:57.706Z,18.60
2018-03-04T11:22:25.282Z,18.60
2018-03-04T11:24:52.883Z,18.60
2018-03-04T11:27:20.467Z,18.60
2018-03-04T11:29:48.418Z,18.60
2018-03-04T11:32:15.989Z,18.60
2018-03-04T11:34:43.700Z,18.60
2018-03-04T11:37:12.031Z,18.60
2018-03-04T11:39:40.535Z,18.60
2018-03-04T11:42:08.167Z,18.60
2018-03-04T11:44:35.747Z,18.60
2018-03-04T11:47:03.384Z,18.60
2018-03-04T11:49:30.971Z,18.60
2018-03-04T11:51:58.532Z,18.60
2018-03-04T11:54:27.638Z,18.60
2018-03-04T11:57:03.027Z,18.60
2018-03-04T11:59:30.703Z,18.60
2018-03-04T12:01:58.388Z,18.60
2018-03-04T12:04:28.923Z,18.60
2018-03-04T12:06:57.264Z,18.60
2018-03-04T12:09:24.877Z,18.60
2018-03-04T12:11:52.444Z,18.60
2018-03-04T12:14:20.140Z,18.60
2018-03-04T12:16:47.828Z,18.60
2018-03-04T12:19:15.559Z,18.60
2018-03-04T12:21:43.136Z,18.60
2018-03-04T12:24:10.745Z,18.60
2018-03-04T12:26:38.324Z,18.60
2018-03-04T12:29:05.907Z,18.60
2018-03-04T12:31:33.536Z,18.60
2018-03-04T12:34:01.129Z,18.60
2018-03-04T12:36:33.286Z,18.60
2018-03-04T12:39:01.848Z,18.60
2018-03-04T12:41:30.794Z,18.60
2018-03-04T12:43:58.842Z,18.60
2018-03-04T12:46:27.386Z,18.60
2018-03-04T12:48:56.156Z,18.60
2018-03-04T12:51:23.759Z,18.60
2018-03-04T12:53:52.266Z,18.60
2018-03-04T12:56:19.963Z,18.60
2018-03-04T12:58:48.659Z,18.60
2018-03-04T13:01:19.826Z,18.60
2018-03-04T13:03:48.696Z,18.60
2018-03-04T13:06:17.744Z,18.60
2018-03-04T13:08:47.970Z,18.60
2018-03-04T13:11:16.466Z,18.50
2018-03-04T13:13:45.290Z,18.60
2018-03-04T13:16:13.928Z,18.60
2018-03-04T13:18:42.027Z,18.60
2018-03-04T13:21:10.301Z,18.60
2018-03-04T13:23:38.968Z,18.60
2018-03-04T13:26:08.052Z,18.60
2018-03-04T13:28:35.712Z,18.60
2018-03-04T13:31:03.343Z,18.60
2018-03-04T13:33:31.677Z,18.60
2018-03-04T13:35:59.282Z,18.60
2018-03-04T13:38:27.622Z,18.60
2018-03-04T13:40:55.309Z,18.60
2018-03-04T13:43:22.948Z,18.60
2018-03-04T13:45:51.012Z,18.60
2018-03-04T13:48:18.583Z,18.60
2018-03-04T13:50:46.151Z,18.60
2018-03-04T13:53:13.721Z,18.60
2018-03-04T13:55:41.355Z,18.60
2018-03-04T13:58:08.932Z,18.60
2018-03-04T14:00:36.515Z,18.60
2018-03-04T14:03:04.988Z,18.60
2018-03-04T14:05:33.390Z,18.60
2018-03-04T14:08:00.976Z,18.60
2018-03-04T14:10:28.672Z,18.60
2018-03-04T14:12:57.076Z,18.60
2018-03-04T14:15:24.675Z,18.60
2018-03-04T14:17:52.293Z,18.70
2018-03-04T14:20:19.982Z,18.70
2018-03-04T14:22:48.623Z,18.70
2018-03-04T14:25:17.758Z,18.70
2018-03-04T14:27:46.174Z,18.70
2018-03-04T14:30:13.763Z,18.60
2018-03-04T14:32:42.129Z,18.70
2018-03-04T14:35:10.559Z,18.60
2018-03-04T14:37:38.336Z,18.60
2018-03-04T14:40:05.900Z,18.60
2018-03-04T14:42:33.602Z,18.60
2018-03-04T14:45:01.209Z,18.60
2018-03-04T14:47:28.786Z,18.60
2018-03-04T14:49:56.384Z,18.60
2018-03-04T14:52:23.978Z,18.60
2018-03-04T14:54:51.627Z,18.60
2018-03-04T14:57:19.243Z,18.60
2018-03-04T14:59:47.579Z,18.60
2018-03-04T15:02:15.198Z,18.50
2018-03-04T15:04:42.841Z,18.50
2018-03-04T15:07:11.167Z,18.50
2018-03-04T15:09:38.802Z,18.50
2018-03-04T15:12:06.359Z,18.50
2018-03-04T15:14:33.979Z,18.50
2018-03-04T15:17:02.310Z,18.50
2018-03-04T15:19:29.907Z,18.40
2018-03-04T15:21:57.487Z,18.50
2018-03-04T15:24:27.027Z,18.50
2018-03-04T15:26:54.594Z,18.50
2018-03-04T15:29:22.160Z,18.50
2018-03-04T15:31:49.804Z,18.50
2018-03-04T15:34:17.489Z,18.50
2018-03-04T15:36:45.087Z,18.50
2018-03-04T15:39:13.423Z,18.50
2018-03-04T15:41:40.996Z,18.50
2018-03-04T15:44:08.574Z,18.60
2018-03-04T15:46:36.143Z,18.60
2018-03-04T15:49:04.564Z,18.60
2018-03-04T15:51:32.235Z,18.60
2018-03-04T15:53:59.791Z,18.60
2018-03-04T15:56:27.360Z,18.60
2018-03-04T15:58:54.923Z,18.60
2018-03-04T16:01:22.482Z,18.60
2018-03-04T16:03:51.636Z,18.60
2018-03-04T16:06:19.513Z,18.60
2018-03-04T16:08:47.087Z,18.60
2018-03-04T16:11:14.736Z,18.60
2018-03-04T16:13:43.315Z,18.60
2018-03-04T16:16:10.988Z,18.60
2018-03-04T16:18:39.646Z,18.70
2018-03-04T16:21:08.861Z,18.60
2018-03-04T16:23:36.430Z,18.60
2018-03-04T16:26:04.023Z,18.70
2018-03-04T16:28:32.904Z,18.70
2018-03-04T16:31:01.383Z,18.70
2018-03-04T16:33:29.769Z,18.70
2018-03-04T16:35:58.125Z,18.70
2018-03-04T16:38:25.696Z,18.60
2018-03-04T16:40:54.026Z,18.70
2018-03-04T16:43:21.653Z,18.70
2018-03-04T16:45:49.950Z,18.70
2018-03-04T16:48:18.562Z,18.70
2018-03-04T16:50:46.129Z,18.60
2018-03-04T16:53:13.706Z,18.70
2018-03-04T16:55:43.263Z,18.60
2018-03-04T16:58:11.124Z,18.60
2018-03-04T17:00:38.776Z,18.60
2018-03-04T17:03:06.642Z,18.60
2018-03-04T17:05:34.292Z,18.60
2018-03-04T17:08:03.638Z,18.60
2018-03-04T17:10:31.347Z,18.70
2018-03-04T17:12:59.126Z,18.70
2018-03-04T17:15:26.996Z,18.70
2018-03-04T17:17:54.632Z,18.70
2018-03-04T17:20:22.626Z,18.80
2018-03-04T17:22:50.370Z,18.80
2018-03-04T17:25:18.416Z,18.80
2018-03-04T17:27:46.061Z,18.90
2018-03-04T17:30:14.429Z,18.90
2018-03-04T17:32:42.049Z,18.90
2018-03-04T17:35:11.029Z,18.90
2018-03-04T17:37:40.825Z,19.00
2018-03-04T17:40:08.917Z,19.00
2018-03-04T17:42:36.536Z,19.00
2018-03-04T17:45:04.866Z,19.00
2018-03-04T17:47:32.522Z,19.00
2018-03-04T17:50:00.117Z,19.00
2018-03-04T17:52:29.808Z,19.00
2018-03-04T17:54:57.639Z,19.00
2018-03-04T17:57:25.222Z,19.00
2018-03-04T17:59:52.785Z,19.00
2018-03-04T18:02:20.437Z,19.00
2018-03-04T18:04:48.033Z,19.00
2018-03-04T18:07:16.368Z,19.10
2018-03-04T18:09:44.128Z,19.10
2018-03-04T18:12:12.019Z,19.10
2018-03-04T18:14:42.521Z,19.10
2018-03-04T18:17:10.763Z,19.10
2018-03-04T18:19:40.328Z,19.10
2018-03-04T18:22:08.159Z,19.10
2018-03-04T18:24:35.801Z,19.10
2018-03-04T18:27:03.620Z,19.10
2018-03-04T18:29:31.192Z,19.10
2018-03-04T18:31:59.568Z,19.10
2018-03-04T18:34:27.989Z,19.10
2018-03-04T18:36:56.518Z,19.10
2018-03-04T18:39:25.405Z,19.10
2018-03-04T18:41:53.024Z,19.10
2018-03-04T18:44:21.322Z,19.10
2018-03-04T18:46:48.951Z,19.10
2018-03-04T18:49:17.432Z,19.10
2018-03-04T18:51:47.112Z,19.10
2018-03-04T18:54:17.419Z,19.10
2018-03-04T18:56:45.430Z,19.10
2018-03-04T18:59:14.113Z,19.10
2018-03-04T19:01:42.620Z,19.10
2018-03-04T19:04:10.207Z,19.10
2018-03-04T19:06:38.833Z,19.20
2018-03-04T19:09:06.447Z,19.10
2018-03-04T19:11:35.090Z,19.10
2018-03-04T19:14:03.032Z,19.10
2018-03-04T19:16:30.617Z,19.20
2018-03-04T19:18:59.953Z,19.20
2018-03-04T19:21:27.713Z,19.20
2018-03-04T19:23:57.035Z,19.20
2018-03-04T19:26:25.031Z,19.10
2018-03-04T19:28:52.737Z,19.20
2018-03-04T19:31:21.818Z,19.20
2018-03-04T19:33:49.451Z,19.10
2018-03-04T19:36:17.050Z,19.20
2018-03-04T19:38:44.870Z,19.20
2018-03-04T19:41:12.625Z,19.20
2018-03-04T19:43:40.215Z,19.30
2018-03-04T19:46:07.883Z,19.30
2018-03-04T19:48:35.449Z,19.20
2018-03-04T19:51:03.025Z,19.20
2018-03-04T19:53:30.593Z,19.20
2018-03-04T19:55:58.943Z,19.10
2018-03-04T19:58:26.555Z,19.10
2018-03-04T20:00:54.117Z,19.10
2018-03-04T20:03:21.690Z,19.10
2018-03-04T20:05:49.493Z,19.00
2018-03-04T20:08:17.828Z,19.10
2018-03-04T20:10:45.405Z,19.00
2018-03-04T20:13:13.339Z,19.00
2018-03-04T20:15:41.732Z,19.00
2018-03-04T20:18:09.339Z,18.90
2018-03-04T20:20:38.162Z,19.00
2018-03-04T20:23:05.767Z,18.90
2018-03-04T20:25:33.378Z,18.90
2018-03-04T20:28:00.985Z,19.00
2018-03-04T20:30:28.572Z,19.00
2018-03-04T20:32:56.253Z,18.90
2018-03-04T20:35:25.795Z,18.90
2018-03-04T20:37:53.448Z,18.90
2018-03-04T20:40:21.023Z,18.90
2018-03-04T20:42:48.969Z,18.90
2018-03-04T20:45:18.220Z,18.90
2018-03-04T20:47:45.822Z,18.90
2018-03-04T20:50:14.465Z,18.90
2018-03-04T20:52:43.150Z,18.90
2018-03-04T20:55:12.092Z,18.90
2018-03-04T20:57:41.161Z,18.80
2018-03-04T21:00:09.121Z,18.90
2018-03-04T21:02:37.709Z,18.90
2018-03-04T21:05:06.846Z,18.90
2018-03-04T21:07:35.482Z,18.90
2018-03-04T21:10:03.661Z,18.80
2018-03-04T21:12:31.229Z,18.80
2018-03-04T21:15:00.116Z,18.80
2018-03-04T21:17:27.764Z,18.80
2018-03-04T21:19:55.436Z,18.80
2018-03-04T21:22:23.102Z,18.80
2018-03-04T21:24:50.752Z,18.80
2018-03-04T21:27:18.306Z,18.70
2018-03-04T21:29:45.901Z,18.80
2018-03-04T21:32:13.576Z,18.80
2018-03-04T21:34:41.909Z,18.70
2018-03-04T21:37:09.468Z,18.70
2018-03-04T21:39:37.027Z,18.70
2018-03-04T21:42:04.592Z,18.70
2018-03-04T21:44:32.161Z,18.70
2018-03-04T21:46:59.795Z,18.70
2018-03-04T21:49:27.365Z,18.70
2018-03-04T21:51:55.017Z,18.70
2018-03-04T21:54:22.576Z,18.60
2018-03-04T21:56:50.282Z,18.60
2018-03-04T21:59:17.899Z,18.60
2018-03-04T22:01:46.055Z,18.60
2018-03-04T22:04:14.465Z,18.60
2018-03-04T22:06:43.773Z,18.50
2018-03-04T22:09:11.405Z,18.60
2018-03-04T22:11:39.346Z,18.60
2018-03-04T22:14:06.909Z,18.60
2018-03-04T22:16:34.486Z,18.50
2018-03-04T22:19:02.044Z,18.50
2018-03-04T22:21:29.627Z,18.50
2018-03-04T22:23:57.263Z,18.50
2018-03-04T22:26:24.856Z,18.50
2018-03-04T22:28:53.182Z,18.50
2018-03-04T22:31:20.750Z,18.50
2018-03-04T22:33:48.316Z,18.50
2018-03-04T22:36:15.976Z,18.50
2018-03-04T22:38:43.540Z,18.40
2018-03-04T22:41:11.105Z,18.40
2018-03-04T22:43:38.672Z,18.40
2018-03-04T22:46:06.232Z,18.40
2018-03-04T22:48:33.867Z,18.40
2018-03-04T22:51:01.440Z,18.40
2018-03-04T22:53:28.999Z,18.40
2018-03-04T22:55:56.564Z,18.40
2018-03-04T22:58:24.129Z,18.40
2018-03-04T23:00:51.752Z,18.40
2018-03-04T23:03:19.311Z,18.40
2018-03-04T23:05:47.075Z,18.40
2018-03-04T23:08:14.734Z,18.40
2018-03-04T23:10:42.295Z,18.40
2018-03-04T23:13:09.867Z,18.30
2018-03-04T23:15:56.333Z,18.30
2018-03-04T23:18:23.895Z,18.40
2018-03-04T23:20:51.464Z,18.30
2018-03-04T23:23:19.029Z,18.30
2018-03-04T23:25:46.931Z,18.30
2018-03-04T23:28:14.495Z,18.30
2018-03-04T23:30:42.055Z,18.30
2018-03-04T23:33:10.378Z,18.30
2018-03-04T23:35:38.056Z,18.30
2018-03-04T23:38:05.796Z,18.30
2018-03-04T23:40:33.362Z,18.30
2018-03-04T23:43:00.916Z,18.30
2018-03-04T23:45:28.578Z,18.30
2018-03-04T23:47:56.227Z,18.30
2018-03-04T23:50:23.896Z,18.30
2018-03-04T23:52:51.462Z,18.20
2018-03-04T23:55:19.051Z,18.30
2018-03-04T23:57:46.608Z,18.20
